<?xml version="1.0" encoding="UTF-8" standalone="no" ?>
<gpx xmlns="http://www.topografix.com/GPX/1/1" xmlns:xsi="http://www.w3.org/2001/XMLSchema-instance" xsi:schemaLocation="http://www.topografix.com/GPX/1/1 http://www.topografix.com/GPX/1/1/gpx.xsd" version="1.1" creator="VisuGPX - https://www.visugpx.com">
  <metadata>
    <name>Guer la boucle du Dran</name>
    <desc><![CDATA[Randonnée de 11,500 km autour de Guer]]></desc>
  </metadata>
  <trk>
    <name><![CDATA[20180210110340-DmX8m]]></name>
    <trkseg>
      <trkpt lat="47.90591" lon="-2.12491">
        <ele>45</ele>
        <time>2018-02-10T10:55:18Z</time>
      </trkpt>
      <trkpt lat="47.90581" lon="-2.12543">
        <ele>43</ele>
        <time>2018-02-10T10:56:18Z</time>
      </trkpt>
      <trkpt lat="47.90572" lon="-2.12608">
        <ele>41</ele>
        <time>2018-02-10T10:57:18Z</time>
      </trkpt>
      <trkpt lat="47.90569" lon="-2.12672">
        <ele>40</ele>
        <time>2018-02-10T10:58:18Z</time>
      </trkpt>
      <trkpt lat="47.90569" lon="-2.1273">
        <ele>41</ele>
        <time>2018-02-10T10:59:18Z</time>
      </trkpt>
      <trkpt lat="47.90572" lon="-2.12824">
        <ele>42</ele>
        <time>2018-02-10T11:00:18Z</time>
      </trkpt>
      <trkpt lat="47.90575" lon="-2.12923">
        <ele>40</ele>
        <time>2018-02-10T11:01:18Z</time>
      </trkpt>
      <trkpt lat="47.90578" lon="-2.13008">
        <ele>40</ele>
        <time>2018-02-10T11:02:18Z</time>
      </trkpt>
      <trkpt lat="47.90581" lon="-2.13095">
        <ele>39</ele>
        <time>2018-02-10T11:03:18Z</time>
      </trkpt>
      <trkpt lat="47.90584" lon="-2.1322">
        <ele>37</ele>
        <time>2018-02-10T11:04:18Z</time>
      </trkpt>
      <trkpt lat="47.90589" lon="-2.13327">
        <ele>38</ele>
        <time>2018-02-10T11:05:18Z</time>
      </trkpt>
      <trkpt lat="47.9059" lon="-2.13389">
        <ele>40</ele>
        <time>2018-02-10T11:06:18Z</time>
      </trkpt>
      <trkpt lat="47.90593" lon="-2.1348">
        <ele>40</ele>
        <time>2018-02-10T11:07:18Z</time>
      </trkpt>
      <trkpt lat="47.90593" lon="-2.13562">
        <ele>39</ele>
        <time>2018-02-10T11:08:18Z</time>
      </trkpt>
      <trkpt lat="47.90598" lon="-2.13662">
        <ele>36</ele>
        <time>2018-02-10T11:09:18Z</time>
      </trkpt>
      <trkpt lat="47.90601" lon="-2.13743">
        <ele>36</ele>
        <time>2018-02-10T11:10:18Z</time>
      </trkpt>
      <trkpt lat="47.90603" lon="-2.13842">
        <ele>37</ele>
        <time>2018-02-10T11:11:18Z</time>
      </trkpt>
      <trkpt lat="47.90607" lon="-2.13945">
        <ele>37</ele>
        <time>2018-02-10T11:12:18Z</time>
      </trkpt>
      <trkpt lat="47.90609" lon="-2.14044">
        <ele>36</ele>
        <time>2018-02-10T11:13:18Z</time>
      </trkpt>
      <trkpt lat="47.90612" lon="-2.14108">
        <ele>36</ele>
        <time>2018-02-10T11:14:18Z</time>
      </trkpt>
      <trkpt lat="47.90612" lon="-2.14167">
        <ele>36</ele>
        <time>2018-02-10T11:15:18Z</time>
      </trkpt>
      <trkpt lat="47.90613" lon="-2.14249">
        <ele>35</ele>
        <time>2018-02-10T11:16:18Z</time>
      </trkpt>
      <trkpt lat="47.90617" lon="-2.14359">
        <ele>32</ele>
        <time>2018-02-10T11:17:18Z</time>
      </trkpt>
      <trkpt lat="47.90621" lon="-2.14428">
        <ele>32</ele>
        <time>2018-02-10T11:18:18Z</time>
      </trkpt>
      <trkpt lat="47.90626" lon="-2.14495">
        <ele>32</ele>
        <time>2018-02-10T11:19:18Z</time>
      </trkpt>
      <trkpt lat="47.9063" lon="-2.14541">
        <ele>31</ele>
        <time>2018-02-10T11:20:18Z</time>
      </trkpt>
      <trkpt lat="47.90638" lon="-2.14646">
        <ele>31</ele>
        <time>2018-02-10T11:21:18Z</time>
      </trkpt>
      <trkpt lat="47.90645" lon="-2.14699">
        <ele>31</ele>
        <time>2018-02-10T11:22:18Z</time>
      </trkpt>
      <trkpt lat="47.9065" lon="-2.14751">
        <ele>32</ele>
        <time>2018-02-10T11:23:18Z</time>
      </trkpt>
      <trkpt lat="47.90653" lon="-2.14794">
        <ele>31</ele>
        <time>2018-02-10T11:24:18Z</time>
      </trkpt>
      <trkpt lat="47.90655" lon="-2.14846">
        <ele>31</ele>
        <time>2018-02-10T11:25:18Z</time>
      </trkpt>
      <trkpt lat="47.90664" lon="-2.14941">
        <ele>30</ele>
        <time>2018-02-10T11:26:18Z</time>
      </trkpt>
      <trkpt lat="47.90672" lon="-2.15014">
        <ele>30</ele>
        <time>2018-02-10T11:27:18Z</time>
      </trkpt>
      <trkpt lat="47.90678" lon="-2.15083">
        <ele>30</ele>
        <time>2018-02-10T11:28:18Z</time>
      </trkpt>
      <trkpt lat="47.90684" lon="-2.15145">
        <ele>31</ele>
        <time>2018-02-10T11:29:18Z</time>
      </trkpt>
      <trkpt lat="47.90689" lon="-2.15183">
        <ele>31</ele>
        <time>2018-02-10T11:30:18Z</time>
      </trkpt>
      <trkpt lat="47.90694" lon="-2.15248">
        <ele>31</ele>
        <time>2018-02-10T11:31:18Z</time>
      </trkpt>
      <trkpt lat="47.90702" lon="-2.15335">
        <ele>32</ele>
        <time>2018-02-10T11:32:18Z</time>
      </trkpt>
      <trkpt lat="47.90708" lon="-2.1539">
        <ele>33</ele>
        <time>2018-02-10T11:33:18Z</time>
      </trkpt>
      <trkpt lat="47.90713" lon="-2.15475">
        <ele>34</ele>
        <time>2018-02-10T11:34:18Z</time>
      </trkpt>
      <trkpt lat="47.90719" lon="-2.15506">
        <ele>34</ele>
        <time>2018-02-10T11:35:18Z</time>
      </trkpt>
      <trkpt lat="47.90723" lon="-2.15557">
        <ele>33</ele>
        <time>2018-02-10T11:36:18Z</time>
      </trkpt>
      <trkpt lat="47.90732" lon="-2.15654">
        <ele>33</ele>
        <time>2018-02-10T11:37:18Z</time>
      </trkpt>
      <trkpt lat="47.90738" lon="-2.15724">
        <ele>33</ele>
        <time>2018-02-10T11:38:18Z</time>
      </trkpt>
      <trkpt lat="47.90753" lon="-2.15805">
        <ele>33</ele>
        <time>2018-02-10T11:39:18Z</time>
      </trkpt>
      <trkpt lat="47.9076" lon="-2.1587">
        <ele>34</ele>
        <time>2018-02-10T11:40:18Z</time>
      </trkpt>
      <trkpt lat="47.90783" lon="-2.15976">
        <ele>33</ele>
        <time>2018-02-10T11:41:18Z</time>
      </trkpt>
      <trkpt lat="47.90801" lon="-2.16077">
        <ele>32</ele>
        <time>2018-02-10T11:42:18Z</time>
      </trkpt>
      <trkpt lat="47.90822" lon="-2.16183">
        <ele>34</ele>
        <time>2018-02-10T11:43:18Z</time>
      </trkpt>
      <trkpt lat="47.90839" lon="-2.16277">
        <ele>33</ele>
        <time>2018-02-10T11:44:18Z</time>
      </trkpt>
      <trkpt lat="47.90855" lon="-2.16365">
        <ele>34</ele>
        <time>2018-02-10T11:45:18Z</time>
      </trkpt>
      <trkpt lat="47.90873" lon="-2.16455">
        <ele>35</ele>
        <time>2018-02-10T11:46:18Z</time>
      </trkpt>
      <trkpt lat="47.90893" lon="-2.16554">
        <ele>35</ele>
        <time>2018-02-10T11:47:18Z</time>
      </trkpt>
      <trkpt lat="47.90909" lon="-2.16645">
        <ele>35</ele>
        <time>2018-02-10T11:48:18Z</time>
      </trkpt>
      <trkpt lat="47.90917" lon="-2.16699">
        <ele>34</ele>
        <time>2018-02-10T11:49:18Z</time>
      </trkpt>
      <trkpt lat="47.90921" lon="-2.16762">
        <ele>34</ele>
        <time>2018-02-10T11:50:18Z</time>
      </trkpt>
      <trkpt lat="47.90919" lon="-2.16866">
        <ele>36</ele>
        <time>2018-02-10T11:51:18Z</time>
      </trkpt>
      <trkpt lat="47.90903" lon="-2.16958">
        <ele>40</ele>
        <time>2018-02-10T11:52:18Z</time>
      </trkpt>
      <trkpt lat="47.90871" lon="-2.17059">
        <ele>41</ele>
        <time>2018-02-10T11:53:18Z</time>
      </trkpt>
      <trkpt lat="47.9082" lon="-2.17132">
        <ele>46</ele>
        <time>2018-02-10T11:54:18Z</time>
      </trkpt>
      <trkpt lat="47.90779" lon="-2.17195">
        <ele>49</ele>
        <time>2018-02-10T11:55:18Z</time>
      </trkpt>
      <trkpt lat="47.90719" lon="-2.17265">
        <ele>45</ele>
        <time>2018-02-10T11:56:18Z</time>
      </trkpt>
      <trkpt lat="47.9067" lon="-2.17324">
        <ele>41</ele>
        <time>2018-02-10T11:57:18Z</time>
      </trkpt>
      <trkpt lat="47.90641" lon="-2.17382">
        <ele>39</ele>
        <time>2018-02-10T11:58:18Z</time>
      </trkpt>
      <trkpt lat="47.90566" lon="-2.17324">
        <ele>42</ele>
        <time>2018-02-10T11:59:18Z</time>
      </trkpt>
      <trkpt lat="47.90559" lon="-2.17236">
        <ele>47</ele>
        <time>2018-02-10T12:00:18Z</time>
      </trkpt>
      <trkpt lat="47.90552" lon="-2.17189">
        <ele>49</ele>
        <time>2018-02-10T12:01:18Z</time>
      </trkpt>
      <trkpt lat="47.90499" lon="-2.17152">
        <ele>52</ele>
        <time>2018-02-10T12:02:18Z</time>
      </trkpt>
      <trkpt lat="47.90497" lon="-2.17082">
        <ele>52</ele>
        <time>2018-02-10T12:03:18Z</time>
      </trkpt>
      <trkpt lat="47.90523" lon="-2.17068">
        <ele>52</ele>
        <time>2018-02-10T12:04:18Z</time>
      </trkpt>
      <trkpt lat="47.90559" lon="-2.17019">
        <ele>52</ele>
        <time>2018-02-10T12:05:18Z</time>
      </trkpt>
      <trkpt lat="47.90599" lon="-2.16927">
        <ele>49</ele>
        <time>2018-02-10T12:06:18Z</time>
      </trkpt>
      <trkpt lat="47.90624" lon="-2.16846">
        <ele>47</ele>
        <time>2018-02-10T12:07:18Z</time>
      </trkpt>
      <trkpt lat="47.90616" lon="-2.16775">
        <ele>45</ele>
        <time>2018-02-10T12:08:18Z</time>
      </trkpt>
      <trkpt lat="47.90585" lon="-2.16754">
        <ele>44</ele>
        <time>2018-02-10T12:09:18Z</time>
      </trkpt>
      <trkpt lat="47.90541" lon="-2.16714">
        <ele>44</ele>
        <time>2018-02-10T12:10:18Z</time>
      </trkpt>
      <trkpt lat="47.90492" lon="-2.16678">
        <ele>44</ele>
        <time>2018-02-10T12:11:18Z</time>
      </trkpt>
      <trkpt lat="47.90441" lon="-2.16626">
        <ele>43</ele>
        <time>2018-02-10T12:12:18Z</time>
      </trkpt>
      <trkpt lat="47.90397" lon="-2.16587">
        <ele>43</ele>
        <time>2018-02-10T12:13:18Z</time>
      </trkpt>
      <trkpt lat="47.90319" lon="-2.16548">
        <ele>45</ele>
        <time>2018-02-10T12:14:18Z</time>
      </trkpt>
      <trkpt lat="47.90315" lon="-2.16544">
        <ele>45</ele>
        <time>2018-02-10T12:15:18Z</time>
      </trkpt>
      <trkpt lat="47.90277" lon="-2.16528">
        <ele>45</ele>
        <time>2018-02-10T12:16:18Z</time>
      </trkpt>
      <trkpt lat="47.90239" lon="-2.16521">
        <ele>47</ele>
        <time>2018-02-10T12:17:18Z</time>
      </trkpt>
      <trkpt lat="47.9019" lon="-2.16522">
        <ele>49</ele>
        <time>2018-02-10T12:18:18Z</time>
      </trkpt>
      <trkpt lat="47.90127" lon="-2.16493">
        <ele>54</ele>
        <time>2018-02-10T12:19:18Z</time>
      </trkpt>
      <trkpt lat="47.90049" lon="-2.1645">
        <ele>59</ele>
        <time>2018-02-10T12:20:18Z</time>
      </trkpt>
      <trkpt lat="47.89988" lon="-2.16427">
        <ele>61</ele>
        <time>2018-02-10T12:21:18Z</time>
      </trkpt>
      <trkpt lat="47.8992" lon="-2.16407">
        <ele>61</ele>
        <time>2018-02-10T12:22:18Z</time>
      </trkpt>
      <trkpt lat="47.89914" lon="-2.16317">
        <ele>63</ele>
        <time>2018-02-10T12:23:18Z</time>
      </trkpt>
      <trkpt lat="47.89933" lon="-2.1621">
        <ele>63</ele>
        <time>2018-02-10T12:24:18Z</time>
      </trkpt>
      <trkpt lat="47.89924" lon="-2.16202">
        <ele>64</ele>
        <time>2018-02-10T12:25:18Z</time>
      </trkpt>
      <trkpt lat="47.89872" lon="-2.16203">
        <ele>66</ele>
        <time>2018-02-10T12:26:18Z</time>
      </trkpt>
      <trkpt lat="47.89815" lon="-2.16192">
        <ele>70</ele>
        <time>2018-02-10T12:27:18Z</time>
      </trkpt>
      <trkpt lat="47.8973" lon="-2.16147">
        <ele>78</ele>
        <time>2018-02-10T12:28:18Z</time>
      </trkpt>
      <trkpt lat="47.89682" lon="-2.16118">
        <ele>79</ele>
        <time>2018-02-10T12:29:18Z</time>
      </trkpt>
      <trkpt lat="47.89618" lon="-2.16032">
        <ele>84</ele>
        <time>2018-02-10T12:30:18Z</time>
      </trkpt>
      <trkpt lat="47.89573" lon="-2.15988">
        <ele>90</ele>
        <time>2018-02-10T12:31:18Z</time>
      </trkpt>
      <trkpt lat="47.89542" lon="-2.15961">
        <ele>91</ele>
        <time>2018-02-10T12:32:18Z</time>
      </trkpt>
      <trkpt lat="47.89562" lon="-2.1589">
        <ele>91</ele>
        <time>2018-02-10T12:33:18Z</time>
      </trkpt>
      <trkpt lat="47.89575" lon="-2.15823">
        <ele>89</ele>
        <time>2018-02-10T12:34:18Z</time>
      </trkpt>
      <trkpt lat="47.89591" lon="-2.15753">
        <ele>84</ele>
        <time>2018-02-10T12:35:18Z</time>
      </trkpt>
      <trkpt lat="47.89602" lon="-2.15691">
        <ele>81</ele>
        <time>2018-02-10T12:36:18Z</time>
      </trkpt>
      <trkpt lat="47.89604" lon="-2.15623">
        <ele>79</ele>
        <time>2018-02-10T12:37:18Z</time>
      </trkpt>
      <trkpt lat="47.89601" lon="-2.15565">
        <ele>77</ele>
        <time>2018-02-10T12:38:18Z</time>
      </trkpt>
      <trkpt lat="47.89597" lon="-2.1553">
        <ele>76</ele>
        <time>2018-02-10T12:39:18Z</time>
      </trkpt>
      <trkpt lat="47.89553" lon="-2.15522">
        <ele>83</ele>
        <time>2018-02-10T12:40:18Z</time>
      </trkpt>
      <trkpt lat="47.89527" lon="-2.15509">
        <ele>85</ele>
        <time>2018-02-10T12:41:18Z</time>
      </trkpt>
      <trkpt lat="47.89509" lon="-2.15485">
        <ele>85</ele>
        <time>2018-02-10T12:42:18Z</time>
      </trkpt>
      <trkpt lat="47.89511" lon="-2.15436">
        <ele>85</ele>
        <time>2018-02-10T12:43:18Z</time>
      </trkpt>
      <trkpt lat="47.89519" lon="-2.15387">
        <ele>82</ele>
        <time>2018-02-10T12:44:18Z</time>
      </trkpt>
      <trkpt lat="47.89521" lon="-2.15334">
        <ele>82</ele>
        <time>2018-02-10T12:45:18Z</time>
      </trkpt>
      <trkpt lat="47.89518" lon="-2.15293">
        <ele>78</ele>
        <time>2018-02-10T12:46:18Z</time>
      </trkpt>
      <trkpt lat="47.895" lon="-2.15256">
        <ele>78</ele>
        <time>2018-02-10T12:47:18Z</time>
      </trkpt>
      <trkpt lat="47.8947" lon="-2.15221">
        <ele>83</ele>
        <time>2018-02-10T12:48:18Z</time>
      </trkpt>
      <trkpt lat="47.89453" lon="-2.15189">
        <ele>84</ele>
        <time>2018-02-10T12:49:18Z</time>
      </trkpt>
      <trkpt lat="47.89491" lon="-2.15153">
        <ele>81</ele>
        <time>2018-02-10T12:50:18Z</time>
      </trkpt>
      <trkpt lat="47.89519" lon="-2.15119">
        <ele>76</ele>
        <time>2018-02-10T12:51:18Z</time>
      </trkpt>
      <trkpt lat="47.8952" lon="-2.15098">
        <ele>78</ele>
        <time>2018-02-10T12:52:18Z</time>
      </trkpt>
      <trkpt lat="47.8955" lon="-2.15017">
        <ele>83</ele>
        <time>2018-02-10T12:53:18Z</time>
      </trkpt>
      <trkpt lat="47.8957" lon="-2.14973">
        <ele>86</ele>
        <time>2018-02-10T12:54:18Z</time>
      </trkpt>
      <trkpt lat="47.89578" lon="-2.14926">
        <ele>86</ele>
        <time>2018-02-10T12:55:18Z</time>
      </trkpt>
      <trkpt lat="47.89579" lon="-2.14901">
        <ele>87</ele>
        <time>2018-02-10T12:56:18Z</time>
      </trkpt>
      <trkpt lat="47.89561" lon="-2.149">
        <ele>87</ele>
        <time>2018-02-10T12:57:18Z</time>
      </trkpt>
      <trkpt lat="47.89558" lon="-2.14913">
        <ele>87</ele>
        <time>2018-02-10T12:58:18Z</time>
      </trkpt>
      <trkpt lat="47.89521" lon="-2.14935">
        <ele>88</ele>
        <time>2018-02-10T12:59:18Z</time>
      </trkpt>
      <trkpt lat="47.895" lon="-2.14941">
        <ele>88</ele>
        <time>2018-02-10T13:00:18Z</time>
      </trkpt>
      <trkpt lat="47.89489" lon="-2.14903">
        <ele>92</ele>
        <time>2018-02-10T13:01:18Z</time>
      </trkpt>
      <trkpt lat="47.89476" lon="-2.14887">
        <ele>93</ele>
        <time>2018-02-10T13:02:18Z</time>
      </trkpt>
      <trkpt lat="47.89471" lon="-2.14851">
        <ele>93</ele>
        <time>2018-02-10T13:03:18Z</time>
      </trkpt>
      <trkpt lat="47.89467" lon="-2.14817">
        <ele>94</ele>
        <time>2018-02-10T13:04:18Z</time>
      </trkpt>
      <trkpt lat="47.89465" lon="-2.14741">
        <ele>93</ele>
        <time>2018-02-10T13:05:18Z</time>
      </trkpt>
      <trkpt lat="47.89442" lon="-2.14733">
        <ele>94</ele>
        <time>2018-02-10T13:06:18Z</time>
      </trkpt>
      <trkpt lat="47.89414" lon="-2.1473">
        <ele>97</ele>
        <time>2018-02-10T13:07:18Z</time>
      </trkpt>
      <trkpt lat="47.89387" lon="-2.14724">
        <ele>98</ele>
        <time>2018-02-10T13:08:18Z</time>
      </trkpt>
      <trkpt lat="47.89367" lon="-2.14702">
        <ele>98</ele>
        <time>2018-02-10T13:09:18Z</time>
      </trkpt>
      <trkpt lat="47.89327" lon="-2.14701">
        <ele>100</ele>
        <time>2018-02-10T13:10:18Z</time>
      </trkpt>
      <trkpt lat="47.89293" lon="-2.14698">
        <ele>100</ele>
        <time>2018-02-10T13:11:18Z</time>
      </trkpt>
      <trkpt lat="47.8926" lon="-2.14687">
        <ele>100</ele>
        <time>2018-02-10T13:12:18Z</time>
      </trkpt>
      <trkpt lat="47.89228" lon="-2.14671">
        <ele>100</ele>
        <time>2018-02-10T13:13:18Z</time>
      </trkpt>
      <trkpt lat="47.89193" lon="-2.14663">
        <ele>100</ele>
        <time>2018-02-10T13:14:18Z</time>
      </trkpt>
      <trkpt lat="47.89159" lon="-2.14652">
        <ele>101</ele>
        <time>2018-02-10T13:15:18Z</time>
      </trkpt>
      <trkpt lat="47.89126" lon="-2.14636">
        <ele>101</ele>
        <time>2018-02-10T13:16:18Z</time>
      </trkpt>
      <trkpt lat="47.89102" lon="-2.1461">
        <ele>101</ele>
        <time>2018-02-10T13:17:18Z</time>
      </trkpt>
      <trkpt lat="47.89079" lon="-2.14584">
        <ele>101</ele>
        <time>2018-02-10T13:18:18Z</time>
      </trkpt>
      <trkpt lat="47.89052" lon="-2.14546">
        <ele>101</ele>
        <time>2018-02-10T13:19:18Z</time>
      </trkpt>
      <trkpt lat="47.89031" lon="-2.14504">
        <ele>101</ele>
        <time>2018-02-10T13:20:18Z</time>
      </trkpt>
      <trkpt lat="47.89002" lon="-2.14463">
        <ele>102</ele>
        <time>2018-02-10T13:21:18Z</time>
      </trkpt>
      <trkpt lat="47.8897" lon="-2.14423">
        <ele>104</ele>
        <time>2018-02-10T13:22:18Z</time>
      </trkpt>
      <trkpt lat="47.88941" lon="-2.14394">
        <ele>105</ele>
        <time>2018-02-10T13:23:18Z</time>
      </trkpt>
      <trkpt lat="47.88947" lon="-2.1434">
        <ele>105</ele>
        <time>2018-02-10T13:24:18Z</time>
      </trkpt>
      <trkpt lat="47.88962" lon="-2.14294">
        <ele>107</ele>
        <time>2018-02-10T13:25:18Z</time>
      </trkpt>
      <trkpt lat="47.88966" lon="-2.14243">
        <ele>108</ele>
        <time>2018-02-10T13:26:18Z</time>
      </trkpt>
      <trkpt lat="47.8897" lon="-2.14211">
        <ele>108</ele>
        <time>2018-02-10T13:27:18Z</time>
      </trkpt>
      <trkpt lat="47.88956" lon="-2.14177">
        <ele>107</ele>
        <time>2018-02-10T13:28:18Z</time>
      </trkpt>
      <trkpt lat="47.88927" lon="-2.14171">
        <ele>105</ele>
        <time>2018-02-10T13:29:18Z</time>
      </trkpt>
      <trkpt lat="47.88899" lon="-2.1418">
        <ele>103</ele>
        <time>2018-02-10T13:30:18Z</time>
      </trkpt>
      <trkpt lat="47.88871" lon="-2.14162">
        <ele>102</ele>
        <time>2018-02-10T13:31:18Z</time>
      </trkpt>
      <trkpt lat="47.88844" lon="-2.14148">
        <ele>101</ele>
        <time>2018-02-10T13:32:18Z</time>
      </trkpt>
      <trkpt lat="47.88838" lon="-2.14114">
        <ele>100</ele>
        <time>2018-02-10T13:33:18Z</time>
      </trkpt>
      <trkpt lat="47.88846" lon="-2.14052">
        <ele>97</ele>
        <time>2018-02-10T13:34:18Z</time>
      </trkpt>
      <trkpt lat="47.88855" lon="-2.13981">
        <ele>94</ele>
        <time>2018-02-10T13:35:18Z</time>
      </trkpt>
      <trkpt lat="47.88862" lon="-2.13931">
        <ele>94</ele>
        <time>2018-02-10T13:36:18Z</time>
      </trkpt>
      <trkpt lat="47.88869" lon="-2.13866">
        <ele>95</ele>
        <time>2018-02-10T13:37:18Z</time>
      </trkpt>
      <trkpt lat="47.88866" lon="-2.13823">
        <ele>95</ele>
        <time>2018-02-10T13:38:18Z</time>
      </trkpt>
      <trkpt lat="47.88854" lon="-2.13781">
        <ele>94</ele>
        <time>2018-02-10T13:39:18Z</time>
      </trkpt>
      <trkpt lat="47.88845" lon="-2.13712">
        <ele>94</ele>
        <time>2018-02-10T13:40:18Z</time>
      </trkpt>
      <trkpt lat="47.88835" lon="-2.13665">
        <ele>90</ele>
        <time>2018-02-10T13:41:18Z</time>
      </trkpt>
      <trkpt lat="47.88816" lon="-2.13629">
        <ele>86</ele>
        <time>2018-02-10T13:42:18Z</time>
      </trkpt>
      <trkpt lat="47.88784" lon="-2.13612">
        <ele>85</ele>
        <time>2018-02-10T13:43:18Z</time>
      </trkpt>
      <trkpt lat="47.88783" lon="-2.13582">
        <ele>85</ele>
        <time>2018-02-10T13:44:18Z</time>
      </trkpt>
      <trkpt lat="47.88806" lon="-2.1353">
        <ele>85</ele>
        <time>2018-02-10T13:45:18Z</time>
      </trkpt>
      <trkpt lat="47.88828" lon="-2.13474">
        <ele>82</ele>
        <time>2018-02-10T13:46:18Z</time>
      </trkpt>
      <trkpt lat="47.88854" lon="-2.13418">
        <ele>84</ele>
        <time>2018-02-10T13:47:18Z</time>
      </trkpt>
      <trkpt lat="47.88874" lon="-2.13371">
        <ele>81</ele>
        <time>2018-02-10T13:48:18Z</time>
      </trkpt>
      <trkpt lat="47.88895" lon="-2.13318">
        <ele>78</ele>
        <time>2018-02-10T13:49:18Z</time>
      </trkpt>
      <trkpt lat="47.88925" lon="-2.1326">
        <ele>79</ele>
        <time>2018-02-10T13:50:18Z</time>
      </trkpt>
      <trkpt lat="47.8895" lon="-2.13215">
        <ele>74</ele>
        <time>2018-02-10T13:51:18Z</time>
      </trkpt>
      <trkpt lat="47.88977" lon="-2.13169">
        <ele>71</ele>
        <time>2018-02-10T13:52:18Z</time>
      </trkpt>
      <trkpt lat="47.89002" lon="-2.13148">
        <ele>64</ele>
        <time>2018-02-10T13:53:18Z</time>
      </trkpt>
      <trkpt lat="47.89038" lon="-2.13159">
        <ele>61</ele>
        <time>2018-02-10T13:54:18Z</time>
      </trkpt>
      <trkpt lat="47.89074" lon="-2.13172">
        <ele>65</ele>
        <time>2018-02-10T13:55:18Z</time>
      </trkpt>
      <trkpt lat="47.89118" lon="-2.13151">
        <ele>53</ele>
        <time>2018-02-10T13:56:18Z</time>
      </trkpt>
      <trkpt lat="47.89164" lon="-2.13133">
        <ele>50</ele>
        <time>2018-02-10T13:57:18Z</time>
      </trkpt>
      <trkpt lat="47.89195" lon="-2.13118">
        <ele>46</ele>
        <time>2018-02-10T13:58:18Z</time>
      </trkpt>
      <trkpt lat="47.89215" lon="-2.13117">
        <ele>46</ele>
        <time>2018-02-10T13:59:18Z</time>
      </trkpt>
      <trkpt lat="47.89225" lon="-2.13097">
        <ele>44</ele>
        <time>2018-02-10T14:00:18Z</time>
      </trkpt>
      <trkpt lat="47.89221" lon="-2.13044">
        <ele>33</ele>
        <time>2018-02-10T14:01:18Z</time>
      </trkpt>
      <trkpt lat="47.89228" lon="-2.1298">
        <ele>29</ele>
        <time>2018-02-10T14:02:18Z</time>
      </trkpt>
      <trkpt lat="47.89234" lon="-2.12923">
        <ele>31</ele>
        <time>2018-02-10T14:03:18Z</time>
      </trkpt>
      <trkpt lat="47.89238" lon="-2.1287">
        <ele>31</ele>
        <time>2018-02-10T14:04:18Z</time>
      </trkpt>
      <trkpt lat="47.8926" lon="-2.12814">
        <ele>37</ele>
        <time>2018-02-10T14:05:18Z</time>
      </trkpt>
      <trkpt lat="47.89277" lon="-2.12772">
        <ele>37</ele>
        <time>2018-02-10T14:06:18Z</time>
      </trkpt>
      <trkpt lat="47.89308" lon="-2.12737">
        <ele>38</ele>
        <time>2018-02-10T14:07:18Z</time>
      </trkpt>
      <trkpt lat="47.89333" lon="-2.127">
        <ele>38</ele>
        <time>2018-02-10T14:08:18Z</time>
      </trkpt>
      <trkpt lat="47.89351" lon="-2.12652">
        <ele>38</ele>
        <time>2018-02-10T14:09:18Z</time>
      </trkpt>
      <trkpt lat="47.89388" lon="-2.12653">
        <ele>37</ele>
        <time>2018-02-10T14:10:18Z</time>
      </trkpt>
      <trkpt lat="47.89432" lon="-2.12646">
        <ele>36</ele>
        <time>2018-02-10T14:11:18Z</time>
      </trkpt>
      <trkpt lat="47.89471" lon="-2.12632">
        <ele>35</ele>
        <time>2018-02-10T14:12:18Z</time>
      </trkpt>
      <trkpt lat="47.89506" lon="-2.1262">
        <ele>33</ele>
        <time>2018-02-10T14:13:18Z</time>
      </trkpt>
      <trkpt lat="47.89539" lon="-2.12608">
        <ele>33</ele>
        <time>2018-02-10T14:14:18Z</time>
      </trkpt>
      <trkpt lat="47.89574" lon="-2.12577">
        <ele>33</ele>
        <time>2018-02-10T14:15:18Z</time>
      </trkpt>
      <trkpt lat="47.89614" lon="-2.12547">
        <ele>32</ele>
        <time>2018-02-10T14:16:18Z</time>
      </trkpt>
      <trkpt lat="47.8965" lon="-2.1252">
        <ele>32</ele>
        <time>2018-02-10T14:17:18Z</time>
      </trkpt>
      <trkpt lat="47.89691" lon="-2.12497">
        <ele>33</ele>
        <time>2018-02-10T14:18:18Z</time>
      </trkpt>
      <trkpt lat="47.89727" lon="-2.12476">
        <ele>33</ele>
        <time>2018-02-10T14:19:18Z</time>
      </trkpt>
      <trkpt lat="47.8977" lon="-2.12452">
        <ele>34</ele>
        <time>2018-02-10T14:20:18Z</time>
      </trkpt>
      <trkpt lat="47.89805" lon="-2.12429">
        <ele>34</ele>
        <time>2018-02-10T14:21:18Z</time>
      </trkpt>
      <trkpt lat="47.89845" lon="-2.12396">
        <ele>35</ele>
        <time>2018-02-10T14:22:18Z</time>
      </trkpt>
      <trkpt lat="47.89903" lon="-2.12363">
        <ele>35</ele>
        <time>2018-02-10T14:23:18Z</time>
      </trkpt>
      <trkpt lat="47.89934" lon="-2.12361">
        <ele>35</ele>
        <time>2018-02-10T14:24:18Z</time>
      </trkpt>
      <trkpt lat="47.89983" lon="-2.12351">
        <ele>36</ele>
        <time>2018-02-10T14:25:18Z</time>
      </trkpt>
      <trkpt lat="47.90028" lon="-2.12345">
        <ele>37</ele>
        <time>2018-02-10T14:26:18Z</time>
      </trkpt>
      <trkpt lat="47.9007" lon="-2.12339">
        <ele>39</ele>
        <time>2018-02-10T14:27:18Z</time>
      </trkpt>
      <trkpt lat="47.90108" lon="-2.12329">
        <ele>41</ele>
        <time>2018-02-10T14:28:18Z</time>
      </trkpt>
      <trkpt lat="47.90144" lon="-2.12304">
        <ele>41</ele>
        <time>2018-02-10T14:29:18Z</time>
      </trkpt>
      <trkpt lat="47.90156" lon="-2.12298">
        <ele>41</ele>
        <time>2018-02-10T14:30:18Z</time>
      </trkpt>
      <trkpt lat="47.90147" lon="-2.12259">
        <ele>42</ele>
        <time>2018-02-10T14:31:18Z</time>
      </trkpt>
      <trkpt lat="47.90142" lon="-2.12221">
        <ele>42</ele>
        <time>2018-02-10T14:32:18Z</time>
      </trkpt>
      <trkpt lat="47.90134" lon="-2.12192">
        <ele>42</ele>
        <time>2018-02-10T14:33:18Z</time>
      </trkpt>
      <trkpt lat="47.90128" lon="-2.12159">
        <ele>42</ele>
        <time>2018-02-10T14:34:18Z</time>
      </trkpt>
      <trkpt lat="47.90119" lon="-2.12133">
        <ele>42</ele>
        <time>2018-02-10T14:35:18Z</time>
      </trkpt>
      <trkpt lat="47.9012" lon="-2.12116">
        <ele>42</ele>
        <time>2018-02-10T14:36:18Z</time>
      </trkpt>
      <trkpt lat="47.90144" lon="-2.12083">
        <ele>44</ele>
        <time>2018-02-10T14:37:18Z</time>
      </trkpt>
      <trkpt lat="47.90178" lon="-2.12054">
        <ele>45</ele>
        <time>2018-02-10T14:38:18Z</time>
      </trkpt>
      <trkpt lat="47.90214" lon="-2.12019">
        <ele>45</ele>
        <time>2018-02-10T14:39:18Z</time>
      </trkpt>
      <trkpt lat="47.90231" lon="-2.12003">
        <ele>46</ele>
        <time>2018-02-10T14:40:18Z</time>
      </trkpt>
      <trkpt lat="47.90277" lon="-2.11993">
        <ele>46</ele>
        <time>2018-02-10T14:41:18Z</time>
      </trkpt>
      <trkpt lat="47.90321" lon="-2.11984">
        <ele>45</ele>
        <time>2018-02-10T14:42:18Z</time>
      </trkpt>
      <trkpt lat="47.90367" lon="-2.1198">
        <ele>44</ele>
        <time>2018-02-10T14:43:18Z</time>
      </trkpt>
      <trkpt lat="47.90402" lon="-2.11987">
        <ele>43</ele>
        <time>2018-02-10T14:44:18Z</time>
      </trkpt>
      <trkpt lat="47.9041" lon="-2.12021">
        <ele>43</ele>
        <time>2018-02-10T14:45:18Z</time>
      </trkpt>
      <trkpt lat="47.9042" lon="-2.12054">
        <ele>42</ele>
        <time>2018-02-10T14:46:18Z</time>
      </trkpt>
      <trkpt lat="47.90433" lon="-2.12087">
        <ele>42</ele>
        <time>2018-02-10T14:47:18Z</time>
      </trkpt>
      <trkpt lat="47.90458" lon="-2.12116">
        <ele>41</ele>
        <time>2018-02-10T14:48:18Z</time>
      </trkpt>
      <trkpt lat="47.90471" lon="-2.12151">
        <ele>41</ele>
        <time>2018-02-10T14:49:18Z</time>
      </trkpt>
      <trkpt lat="47.90486" lon="-2.12198">
        <ele>41</ele>
        <time>2018-02-10T14:50:18Z</time>
      </trkpt>
      <trkpt lat="47.90509" lon="-2.12233">
        <ele>42</ele>
        <time>2018-02-10T14:51:18Z</time>
      </trkpt>
      <trkpt lat="47.90535" lon="-2.12274">
        <ele>44</ele>
        <time>2018-02-10T14:52:18Z</time>
      </trkpt>
      <trkpt lat="47.90551" lon="-2.12304">
        <ele>44</ele>
        <time>2018-02-10T14:53:18Z</time>
      </trkpt>
      <trkpt lat="47.9057" lon="-2.12336">
        <ele>45</ele>
        <time>2018-02-10T14:54:18Z</time>
      </trkpt>
      <trkpt lat="47.90594" lon="-2.12379">
        <ele>46</ele>
        <time>2018-02-10T14:55:18Z</time>
      </trkpt>
      <trkpt lat="47.90609" lon="-2.12388">
        <ele>46</ele>
        <time>2018-02-10T14:56:18Z</time>
      </trkpt>
      <trkpt lat="47.90605" lon="-2.12412">
        <ele>46</ele>
        <time>2018-02-10T14:57:18Z</time>
      </trkpt>
      <trkpt lat="47.906" lon="-2.12438">
        <ele>45</ele>
        <time>2018-02-10T14:58:18Z</time>
      </trkpt>
      <trkpt lat="47.90597" lon="-2.12457">
        <ele>46</ele>
        <time>2018-02-10T14:59:18Z</time>
      </trkpt>
      <trkpt lat="47.90594" lon="-2.12477">
        <ele>45</ele>
        <time>2018-02-10T15:00:18Z</time>
      </trkpt>
    </trkseg>
  </trk>
</gpx>